Time,TemperatureF,DewpointF,PressureIn,WindDirection,WindDirectionDegrees,WindSpeedMPH,WindSpeedGustMPH,Humidity,HourlyPrecipIn,Conditions,Clouds,dailyrainin,SoftwareType,DateUTC
2013-03-04 00:00:00,27.4,7.3,29.97,SSW,210,0.0,0.0,42,0.00,,SCT,0.00,VWS V14.01,2013-03-04 05:00:00,
2013-03-04 00:05:00,27.4,7.9,29.97,SSW,199,0.0,0.0,43,0.00,,SCT,0.00,VWS V14.01,2013-03-04 05:05:00,
2013-03-04 00:10:00,27.2,7.7,29.97,WSW,239,0.0,0.0,43,0.00,,SCT,0.00,VWS V14.01,2013-03-04 05:10:00,
2013-03-04 00:15:00,26.9,6.8,29.97,WSW,239,0.0,0.0,42,0.00,,SCT,0.00,VWS V14.01,2013-03-04 05:15:00,
2013-03-04 00:20:00,26.7,6.7,29.97,West,277,2.7,3.1,42,0.00,,SCT,0.00,VWS V14.01,2013-03-04 05:20:00,
2013-03-04 00:25:00,26.5,7.0,29.97,WNW,285,0.0,0.0,43,0.00,,SCT,0.00,VWS V14.01,2013-03-04 05:25:00,
2013-03-04 00:30:00,26.1,6.7,29.97,WNW,285,3.1,3.1,43,0.00,,SCT,0.00,VWS V14.01,2013-03-04 05:30:00,
2013-03-04 00:35:00,26.0,6.6,29.97,SW,236,0.0,3.1,43,0.00,,SCT,0.00,VWS V14.01,2013-03-04 05:35:00,
2013-03-04 00:40:00,26.0,6.6,29.97,SW,236,0.0,0.0,43,0.00,,SCT,0.00,VWS V14.01,2013-03-04 05:40:00,
2013-03-04 00:45:00,25.8,6.9,29.97,SW,236,0.0,0.0,44,0.00,,SCT,0.00,VWS V14.01,2013-03-04 05:45:00,
2013-03-04 00:50:00,25.6,7.2,29.97,East,80,0.0,0.0,45,0.00,,SCT,0.00,VWS V14.01,2013-03-04 05:50:00,
2013-03-04 00:55:00,25.4,7.1,29.97,WSW,249,3.1,4.5,45,0.00,,SCT,0.00,VWS V14.01,2013-03-04 05:55:00,
2013-03-04 01:00:00,25.4,7.1,29.97,NNW,342,3.1,3.1,45,0.00,,SCT,0.00,VWS V14.01,2013-03-04 06:00:00,
2013-03-04 01:05:00,25.6,7.2,29.97,SSE,157,2.7,2.7,45,0.00,,SCT,0.00,VWS V14.01,2013-03-04 06:05:00,
2013-03-04 01:10:00,25.6,7.2,29.97,SSW,200,0.0,0.0,45,0.00,,SCT,0.00,VWS V14.01,2013-03-04 06:10:00,
2013-03-04 01:15:00,25.2,6.9,29.97,SE,141,0.0,0.0,45,0.00,,SCT,0.00,VWS V14.01,2013-03-04 06:15:00,
2013-03-04 01:20:00,25.2,6.9,29.97,SE,141,0.0,0.0,45,0.00,,SCT,0.00,VWS V14.01,2013-03-04 06:20:00,
2013-03-04 01:25:00,24.9,7.0,29.97,SE,141,0.0,0.0,46,0.00,,SCT,0.00,VWS V14.01,2013-03-04 06:25:00,
2013-03-04 01:30:00,24.7,6.9,29.97,SE,141,0.0,0.0,46,0.00,,SCT,0.00,VWS V14.01,2013-03-04 06:30:00,
2013-03-04 01:35:00,24.9,7.0,29.97,SE,141,0.0,0.0,46,0.00,,SCT,0.00,VWS V14.01,2013-03-04 06:35:00,
2013-03-04 01:39:00,24.9,6.6,29.97,West,269,0.0,0.0,45,0.00,,SCT,0.00,VWS V14.01,2013-03-04 06:39:00,
2013-03-04 01:44:00,25.2,7.4,29.97,SSW,200,0.0,0.0,46,0.00,,SCT,0.00,VWS V14.01,2013-03-04 06:44:00,
2013-03-04 01:49:00,25.2,7.4,29.97,SW,223,0.0,0.0,46,0.00,,SCT,0.00,VWS V14.01,2013-03-04 06:49:00,
2013-03-04 01:54:00,25.1,7.2,29.97,SW,223,0.0,0.0,46,0.00,,SCT,0.00,VWS V14.01,2013-03-04 06:54:00,
2013-03-04 01:59:00,25.1,7.2,29.97,SW,223,0.0,0.0,46,0.00,,SCT,0.00,VWS V14.01,2013-03-04 06:59:00,
2013-03-04 02:04:00,25.1,6.7,29.97,East,85,0.0,3.6,45,0.00,,SCT,0.00,VWS V14.01,2013-03-04 07:04:00,
2013-03-04 02:09:00,25.1,6.7,29.97,SW,232,0.0,0.0,45,0.00,,SCT,0.00,VWS V14.01,2013-03-04 07:09:00,
2013-03-04 02:14:00,24.9,7.0,29.97,SW,230,0.0,0.0,46,0.00,,SCT,0.00,VWS V14.01,2013-03-04 07:14:00,
2013-03-04 02:19:00,24.5,6.7,29.97,SW,227,0.0,0.0,46,0.00,,SCT,0.00,VWS V14.01,2013-03-04 07:19:00,
2013-03-04 02:24:00,24.5,7.7,29.97,SW,215,0.0,0.0,48,0.00,,SCT,0.00,VWS V14.01,2013-03-04 07:24:00,
2013-03-04 02:29:00,24.3,7.5,29.97,SW,215,0.0,0.0,48,0.00,,SCT,0.00,VWS V14.01,2013-03-04 07:29:00,
2013-03-04 02:34:00,24.2,7.3,29.97,SW,215,0.0,0.0,48,0.00,,SCT,0.00,VWS V14.01,2013-03-04 07:34:00,
2013-03-04 02:39:00,24.0,7.6,29.97,SW,215,0.0,0.0,49,0.00,,SCT,0.00,VWS V14.01,2013-03-04 07:39:00,
2013-03-04 02:44:00,24.0,7.6,29.97,SW,215,0.0,0.0,49,0.00,,SCT,0.00,VWS V14.01,2013-03-04 07:44:00,
2013-03-04 02:49:00,23.8,7.4,29.97,SW,215,0.0,0.0,49,0.00,,SCT,0.00,VWS V14.01,2013-03-04 07:49:00,
2013-03-04 02:54:00,23.8,7.4,29.97,SW,215,0.0,0.0,49,0.00,,SCT,0.00,VWS V14.01,2013-03-04 07:54:00,
2013-03-04 02:59:00,23.6,7.3,29.97,SW,215,0.0,0.0,49,0.00,,SCT,0.00,VWS V14.01,2013-03-04 07:59:00,
2013-03-04 03:04:00,23.6,7.3,29.97,SW,215,0.0,2.7,49,0.00,,SCT,0.00,VWS V14.01,2013-03-04 08:04:00,
2013-03-04 03:09:00,23.6,7.3,29.97,SW,215,0.0,0.0,49,0.00,,SCT,0.00,VWS V14.01,2013-03-04 08:09:00,
2013-03-04 03:14:00,23.4,7.1,29.97,SW,215,0.0,0.0,49,0.00,,SCT,0.00,VWS V14.01,2013-03-04 08:14:00,
2013-03-04 03:19:00,23.3,6.9,29.97,SW,215,0.0,0.0,49,0.00,,SCT,0.00,VWS V14.01,2013-03-04 08:19:00,
2013-03-04 03:24:00,23.3,7.4,29.97,SSW,199,2.7,2.7,50,0.00,,SCT,0.00,VWS V14.01,2013-03-04 08:24:00,
2013-03-04 03:29:00,23.3,7.4,29.97,SSW,199,0.0,0.0,50,0.00,,SCT,0.00,VWS V14.01,2013-03-04 08:29:00,
2013-03-04 03:34:00,23.3,7.4,29.97,SSW,199,0.0,0.0,50,0.00,,SCT,0.00,VWS V14.01,2013-03-04 08:34:00,
2013-03-04 03:39:00,23.3,7.4,29.97,SSW,199,0.0,0.0,50,0.00,,SCT,0.00,VWS V14.01,2013-03-04 08:39:00,
2013-03-04 03:44:00,23.4,7.6,29.97,SSW,199,0.0,0.0,50,0.00,,SCT,0.00,VWS V14.01,2013-03-04 08:44:00,
2013-03-04 03:49:00,23.4,7.6,29.97,SSW,196,0.0,0.0,50,0.00,,SCT,0.00,VWS V14.01,2013-03-04 08:49:00,
2013-03-04 03:54:00,23.8,7.9,29.97,ESE,106,0.0,0.0,50,0.00,,SCT,0.00,VWS V14.01,2013-03-04 08:54:00,
2013-03-04 03:59:00,24.0,8.1,29.97,SW,215,0.0,2.7,50,0.00,,SCT,0.00,VWS V14.01,2013-03-04 08:59:00,
2013-03-04 04:04:00,24.0,8.1,29.97,SW,215,0.0,3.1,50,0.00,,SCT,0.00,VWS V14.01,2013-03-04 09:04:00,
2013-03-04 04:09:00,24.2,8.2,29.97,ESE,120,2.7,3.6,50,0.00,,SCT,0.00,VWS V14.01,2013-03-04 09:09:00,
2013-03-04 04:14:00,24.0,7.6,30.00,WSW,253,0.0,0.0,49,0.00,,SCT,0.00,VWS V14.01,2013-03-04 09:14:00,
2013-03-04 04:19:00,24.0,7.6,30.00,SSW,207,0.0,0.0,49,0.00,,SCT,0.00,VWS V14.01,2013-03-04 09:19:00,
2013-03-04 04:24:00,23.6,7.3,30.00,SSW,207,0.0,0.0,49,0.00,,SCT,0.00,VWS V14.01,2013-03-04 09:24:00,
2013-03-04 04:29:00,23.4,7.1,30.00,SSW,207,0.0,0.0,49,0.00,,SCT,0.00,VWS V14.01,2013-03-04 09:29:00,
2013-03-04 04:34:00,23.4,7.1,30.00,East,79,0.0,3.1,49,0.00,,SCT,0.00,VWS V14.01,2013-03-04 09:34:00,
2013-03-04 04:39:00,23.6,7.3,30.00,NE,49,2.7,4.0,49,0.00,,SCT,0.00,VWS V14.01,2013-03-04 09:39:00,
2013-03-04 04:44:00,23.6,7.3,30.00,NE,49,0.0,0.0,49,0.00,,SCT,0.00,VWS V14.01,2013-03-04 09:44:00,
2013-03-04 04:49:00,23.4,7.1,30.00,NE,49,0.0,0.0,49,0.00,,SCT,0.00,VWS V14.01,2013-03-04 09:49:00,
2013-03-04 04:54:00,23.4,7.1,30.00,NE,53,0.0,0.0,49,0.00,,SCT,0.00,VWS V14.01,2013-03-04 09:54:00,
2013-03-04 04:59:00,23.4,7.1,30.00,NE,53,4.0,4.0,49,0.00,,SCT,0.00,VWS V14.01,2013-03-04 09:59:00,
2013-03-04 05:04:00,23.6,7.3,30.00,NE,53,2.7,3.1,49,0.00,,SCT,0.00,VWS V14.01,2013-03-04 10:04:00,
2013-03-04 05:09:00,23.4,7.1,30.00,NE,53,2.7,3.6,49,0.00,,SCT,0.00,VWS V14.01,2013-03-04 10:09:00,
2013-03-04 05:14:00,23.4,7.1,30.00,NE,53,0.0,0.0,49,0.00,,SCT,0.00,VWS V14.01,2013-03-04 10:14:00,
2013-03-04 05:19:00,23.3,6.9,30.00,NE,53,0.0,0.0,49,0.00,,SCT,0.00,VWS V14.01,2013-03-04 10:19:00,
2013-03-04 05:24:00,23.1,6.8,30.00,NE,53,0.0,0.0,49,0.00,,SCT,0.00,VWS V14.01,2013-03-04 10:24:00,
2013-03-04 05:29:00,22.9,7.1,30.00,NE,53,0.0,0.0,50,0.00,,SCT,0.00,VWS V14.01,2013-03-04 10:29:00,
2013-03-04 05:34:00,22.9,7.1,30.00,NE,53,0.0,3.1,50,0.00,,SCT,0.00,VWS V14.01,2013-03-04 10:34:00,
2013-03-04 05:39:00,22.7,6.9,30.00,NE,53,0.0,0.0,50,0.00,,SCT,0.00,VWS V14.01,2013-03-04 10:39:00,
2013-03-04 05:44:00,22.4,6.6,30.03,NE,53,0.0,0.0,50,0.00,,SCT,0.00,VWS V14.01,2013-03-04 10:44:00,
2013-03-04 05:49:00,22.2,6.4,30.03,NE,53,0.0,0.0,50,0.00,,SCT,0.00,VWS V14.01,2013-03-04 10:49:00,
2013-03-04 05:54:00,22.0,6.2,30.03,NE,53,0.0,0.0,50,0.00,,SCT,0.00,VWS V14.01,2013-03-04 10:54:00,
2013-03-04 05:59:00,22.0,6.2,30.03,NE,53,0.0,0.0,50,0.00,,SCT,0.00,VWS V14.01,2013-03-04 10:59:00,
2013-03-04 06:04:00,21.8,6.1,30.03,NE,53,0.0,0.0,50,0.00,,SCT,0.00,VWS V14.01,2013-03-04 11:04:00,
2013-03-04 06:09:00,21.8,6.5,30.03,NE,53,0.0,0.0,51,0.00,,SCT,0.00,VWS V14.01,2013-03-04 11:09:00,
2013-03-04 06:14:00,21.6,6.3,30.03,NE,53,0.0,0.0,51,0.00,,SCT,0.00,VWS V14.01,2013-03-04 11:14:00,
2013-03-04 06:19:00,21.5,6.2,30.03,NE,53,0.0,0.0,51,0.00,,SCT,0.00,VWS V14.01,2013-03-04 11:19:00,
2013-03-04 06:24:00,21.5,6.2,30.03,NE,53,0.0,0.0,51,0.00,,SCT,0.00,VWS V14.01,2013-03-04 11:24:00,
2013-03-04 06:29:00,21.3,6.0,30.03,NE,53,0.0,0.0,51,0.00,,SCT,0.00,VWS V14.01,2013-03-04 11:29:00,
2013-03-04 06:34:00,21.1,5.8,30.03,NE,53,0.0,3.6,51,0.00,,SCT,0.00,VWS V14.01,2013-03-04 11:34:00,
2013-03-04 06:39:00,21.1,5.8,30.03,NE,53,0.0,0.0,51,0.00,,SCT,0.00,VWS V14.01,2013-03-04 11:39:00,
2013-03-04 06:44:00,21.1,6.2,30.06,NE,53,0.0,0.0,52,0.00,,SCT,0.00,VWS V14.01,2013-03-04 11:44:00,
2013-03-04 06:49:00,21.1,6.2,30.06,NE,53,0.0,0.0,52,0.00,,SCT,0.00,VWS V14.01,2013-03-04 11:49:00,
2013-03-04 06:54:00,21.1,6.2,30.06,WSW,253,0.0,3.1,52,0.00,,SCT,0.00,VWS V14.01,2013-03-04 11:54:00,
2013-03-04 06:59:00,21.5,6.6,30.03,WSW,253,2.7,3.1,52,0.00,,SCT,0.00,VWS V14.01,2013-03-04 11:59:00,
2013-03-04 07:04:00,22.0,7.1,30.03,WSW,253,0.0,0.0,52,0.00,,SCT,0.00,VWS V14.01,2013-03-04 12:04:00,
2013-03-04 07:09:00,22.5,7.6,30.03,WSW,253,2.7,3.6,52,0.00,,SCT,0.00,VWS V14.01,2013-03-04 12:09:00,
2013-03-04 07:14:00,22.9,7.9,30.06,WSW,253,3.6,3.6,52,0.00,,SCT,0.00,VWS V14.01,2013-03-04 12:14:00,
2013-03-04 07:19:00,23.3,8.2,30.06,WSW,253,2.7,3.1,52,0.00,,SCT,0.00,VWS V14.01,2013-03-04 12:19:00,
2013-03-04 07:24:00,23.4,8.4,30.06,WSW,253,0.0,0.0,52,0.00,,SCT,0.00,VWS V14.01,2013-03-04 12:24:00,
2013-03-04 07:29:00,24.0,8.9,30.06,WSW,253,2.7,3.1,52,0.00,,SCT,0.00,VWS V14.01,2013-03-04 12:29:00,
2013-03-04 07:34:00,24.3,9.3,30.06,WSW,253,0.0,0.0,52,0.00,,SCT,0.00,VWS V14.01,2013-03-04 12:34:00,
2013-03-04 07:39:00,24.5,9.4,30.06,WSW,253,0.0,0.0,52,0.00,,SCT,0.00,VWS V14.01,2013-03-04 12:39:00,
2013-03-04 07:44:00,25.1,9.5,30.06,SW,234,3.1,3.1,51,0.00,,SCT,0.00,VWS V14.01,2013-03-04 12:44:00,
2013-03-04 07:49:00,25.6,10.0,30.06,SW,234,0.0,3.1,51,0.00,,SCT,0.00,VWS V14.01,2013-03-04 12:49:00,
2013-03-04 07:54:00,26.1,10.5,30.06,SW,234,0.0,0.0,51,0.00,,SCT,0.00,VWS V14.01,2013-03-04 12:54:00,
2013-03-04 07:59:00,27.0,10.9,30.06,SW,234,0.0,3.6,50,0.00,,SCT,0.00,VWS V14.01,2013-03-04 12:59:00,
2013-03-04 08:04:00,28.1,11.9,30.06,SW,234,2.7,3.1,50,0.00,,SCT,0.00,VWS V14.01,2013-03-04 13:04:00,
2013-03-04 08:09:00,29.2,12.4,30.06,SW,234,3.1,3.6,49,0.00,,SCT,0.00,VWS V14.01,2013-03-04 13:09:00,
2013-03-04 08:14:00,30.5,13.1,30.06,West,269,3.1,3.1,48,0.00,,SCT,0.00,VWS V14.01,2013-03-04 13:14:00,
2013-03-04 08:19:00,31.5,14.1,30.06,West,268,4.9,5.8,48,0.00,,SCT,0.00,VWS V14.01,2013-03-04 13:19:00,
2013-03-04 08:24:00,32.3,14.3,30.06,West,273,3.1,3.1,47,0.00,,SCT,0.00,VWS V14.01,2013-03-04 13:24:00,
2013-03-04 08:29:00,32.8,13.3,30.06,SW,225,3.6,4.0,44,0.00,,SCT,0.00,VWS V14.01,2013-03-04 13:29:00,
2013-03-04 08:34:00,33.3,12.7,30.06,SW,215,3.6,3.6,42,0.00,,SCT,0.00,VWS V14.01,2013-03-04 13:34:00,
2013-03-04 08:39:00,33.9,13.2,30.06,WSW,250,4.9,5.8,42,0.00,,SCT,0.00,VWS V14.01,2013-03-04 13:39:00,
2013-03-04 08:44:00,34.4,13.2,30.06,West,269,0.0,3.6,41,0.00,,SCT,0.00,VWS V14.01,2013-03-04 13:44:00,
2013-03-04 08:49:00,34.6,12.2,30.06,West,260,4.5,4.5,39,0.00,,SCT,0.00,VWS V14.01,2013-03-04 13:49:00,
2013-03-04 08:54:00,35.0,12.5,30.06,WNW,286,4.0,4.0,39,0.00,,SCT,0.00,VWS V14.01,2013-03-04 13:54:00,
2013-03-04 08:59:00,35.5,12.4,30.09,WSW,247,4.0,4.9,38,0.00,,SCT,0.00,VWS V14.01,2013-03-04 13:59:00,
2013-03-04 09:04:00,36.0,12.9,30.09,West,281,4.5,5.8,38,0.00,,SCT,0.00,VWS V14.01,2013-03-04 14:04:00,
2013-03-04 09:09:00,36.2,13.1,30.09,WNW,303,3.1,4.5,38,0.00,,SCT,0.00,VWS V14.01,2013-03-04 14:09:00,
2013-03-04 09:14:00,36.8,12.9,30.09,WSW,250,3.1,4.0,37,0.00,,SCT,0.00,VWS V14.01,2013-03-04 14:14:00,
2013-03-04 09:19:00,36.6,12.8,30.09,West,281,5.8,5.8,37,0.00,,SCT,0.00,VWS V14.01,2013-03-04 14:19:00,
2013-03-04 09:24:00,36.6,12.2,30.09,WNW,292,0.0,2.7,36,0.00,,SCT,0.00,VWS V14.01,2013-03-04 14:24:00,
2013-03-04 09:29:00,36.8,12.9,30.09,WSW,244,4.5,5.4,37,0.00,,SCT,0.00,VWS V14.01,2013-03-04 14:29:00,
2013-03-04 09:34:00,37.5,13.0,30.09,WSW,245,3.6,4.0,36,0.00,,SCT,0.00,VWS V14.01,2013-03-04 14:34:00,
2013-03-04 09:39:00,37.8,13.3,30.09,WNW,291,3.6,3.6,36,0.00,,SCT,0.00,VWS V14.01,2013-03-04 14:39:00,
2013-03-04 09:44:00,38.0,13.4,30.09,WSW,245,4.0,4.5,36,0.00,,SCT,0.00,VWS V14.01,2013-03-04 14:44:00,
2013-03-04 09:49:00,38.4,13.8,30.09,WNW,282,3.1,3.6,36,0.00,,SCT,0.00,VWS V14.01,2013-03-04 14:49:00,
2013-03-04 09:54:00,38.7,14.1,30.09,West,269,3.1,4.5,36,0.00,,SCT,0.00,VWS V14.01,2013-03-04 14:54:00,
2013-03-04 09:59:00,39.1,14.4,30.09,WSW,242,4.5,5.4,36,0.00,,SCT,0.00,VWS V14.01,2013-03-04 14:59:00,
2013-03-04 10:04:00,39.3,14.6,30.09,WSW,245,0.0,2.7,36,0.00,,SCT,0.00,VWS V14.01,2013-03-04 15:04:00,
2013-03-04 10:09:00,39.5,14.1,30.09,West,261,5.4,5.8,35,0.00,,SCT,0.00,VWS V14.01,2013-03-04 15:09:00,
2013-03-04 10:14:00,39.6,14.2,30.09,WNW,284,3.1,4.0,35,0.00,,SCT,0.00,VWS V14.01,2013-03-04 15:14:00,
2013-03-04 10:19:00,39.8,14.4,30.09,West,273,4.5,5.4,35,0.00,,SCT,0.00,VWS V14.01,2013-03-04 15:19:00,
2013-03-04 10:24:00,40.0,14.6,30.09,West,266,3.1,4.0,35,0.00,,SCT,0.00,VWS V14.01,2013-03-04 15:24:00,
2013-03-04 10:29:00,40.2,14.7,30.09,West,263,3.1,4.0,35,0.00,,SCT,0.00,VWS V14.01,2013-03-04 15:29:00,
2013-03-04 10:34:00,40.2,14.7,30.09,WNW,299,3.6,4.5,35,0.00,,SCT,0.00,VWS V14.01,2013-03-04 15:34:00,
2013-03-04 10:39:00,40.4,13.6,30.09,NW,325,3.6,4.9,33,0.00,,SCT,0.00,VWS V14.01,2013-03-04 15:39:00,
2013-03-04 10:44:00,40.7,15.2,30.09,SW,230,3.6,4.5,35,0.00,,SCT,0.00,VWS V14.01,2013-03-04 15:44:00,
2013-03-04 10:49:00,40.9,14.0,30.09,South,184,3.1,4.0,33,0.00,,SCT,0.00,VWS V14.01,2013-03-04 15:49:00,
2013-03-04 10:54:00,40.9,14.0,30.09,West,278,5.4,6.9,33,0.00,,SCT,0.00,VWS V14.01,2013-03-04 15:54:00,
2013-03-04 10:59:00,41.3,13.6,30.09,West,280,4.0,4.5,32,0.00,,SCT,0.00,VWS V14.01,2013-03-04 15:59:00,
2013-03-04 11:04:00,41.8,14.1,30.09,West,270,4.5,6.7,32,0.00,,SCT,0.00,VWS V14.01,2013-03-04 16:04:00,
2013-03-04 11:08:00,42.0,14.3,30.09,WSW,243,3.1,4.5,32,0.00,,SCT,0.00,VWS V14.01,2013-03-04 16:08:00,
2013-03-04 11:13:00,41.8,14.1,30.06,WSW,243,3.1,3.1,32,0.00,,SCT,0.00,VWS V14.01,2013-03-04 16:13:00,
2013-03-04 11:18:00,42.3,14.6,30.06,WSW,258,0.0,3.6,32,0.00,,SCT,0.00,VWS V14.01,2013-03-04 16:18:00,
2013-03-04 11:23:00,42.7,14.9,30.06,WSW,238,3.6,6.7,32,0.00,,SCT,0.00,VWS V14.01,2013-03-04 16:23:00,
2013-03-04 11:28:00,43.2,15.4,30.06,WSW,250,3.1,4.9,32,0.00,,SCT,0.00,VWS V14.01,2013-03-04 16:28:00,
2013-03-04 11:33:00,43.6,15.7,30.06,West,262,3.1,4.0,32,0.00,,SCT,0.00,VWS V14.01,2013-03-04 16:33:00,
2013-03-04 11:38:00,44.1,16.2,30.06,NW,317,3.1,3.6,32,0.00,,SCT,0.00,VWS V14.01,2013-03-04 16:38:00,
2013-03-04 11:43:00,44.1,16.2,30.06,West,259,4.5,4.9,32,0.00,,SCT,0.00,VWS V14.01,2013-03-04 16:43:00,
2013-03-04 11:48:00,44.7,15.9,30.06,WNW,282,4.0,4.5,31,0.00,,SCT,0.00,VWS V14.01,2013-03-04 16:48:00,
2013-03-04 11:53:00,45.2,16.4,30.06,West,267,4.0,4.0,31,0.00,,SCT,0.00,VWS V14.01,2013-03-04 16:53:00,
2013-03-04 11:58:00,45.2,14.9,30.06,West,268,4.0,4.9,29,0.00,,SCT,0.00,VWS V14.01,2013-03-04 16:58:00,
2013-03-04 12:03:00,45.6,15.2,30.06,NW,312,2.7,2.7,29,0.00,,SCT,0.00,VWS V14.01,2013-03-04 17:03:00,
2013-03-04 12:08:00,45.9,15.5,30.06,North,351,4.9,6.3,29,0.00,,SCT,0.00,VWS V14.01,2013-03-04 17:08:00,
2013-03-04 12:13:00,45.4,15.0,30.06,WSW,244,4.0,4.0,29,0.00,,SCT,0.00,VWS V14.01,2013-03-04 17:13:00,
2013-03-04 12:18:00,45.9,15.5,30.06,WSW,249,3.6,4.0,29,0.00,,SCT,0.00,VWS V14.01,2013-03-04 17:18:00,
2013-03-04 12:23:00,46.3,15.0,30.06,SSE,163,0.0,2.7,28,0.00,,SCT,0.00,VWS V14.01,2013-03-04 17:23:00,
2013-03-04 12:28:00,46.7,15.3,30.06,East,82,2.7,2.7,28,0.00,,SCT,0.00,VWS V14.01,2013-03-04 17:28:00,
2013-03-04 12:33:00,47.4,15.9,30.06,West,279,4.9,4.9,28,0.00,,SCT,0.00,VWS V14.01,2013-03-04 17:33:00,
2013-03-04 12:38:00,47.4,15.9,30.06,WSW,257,5.8,6.7,28,0.00,,SCT,0.00,VWS V14.01,2013-03-04 17:38:00,
2013-03-04 12:43:00,47.7,16.2,30.06,SW,221,4.5,4.5,28,0.00,,SCT,0.00,VWS V14.01,2013-03-04 17:43:00,
2013-03-04 12:48:00,47.2,15.8,30.06,ESE,107,2.7,3.1,28,0.00,,SCT,0.00,VWS V14.01,2013-03-04 17:48:00,
2013-03-04 12:53:00,47.7,16.2,30.06,West,265,2.7,2.7,28,0.00,,SCT,0.00,VWS V14.01,2013-03-04 17:53:00,
2013-03-04 12:58:00,48.3,16.7,30.03,North,351,3.6,5.4,28,0.00,,SCT,0.00,VWS V14.01,2013-03-04 17:58:00,
2013-03-04 13:03:00,48.6,17.0,30.03,WSW,245,3.1,4.9,28,0.00,,SCT,0.00,VWS V14.01,2013-03-04 18:03:00,
2013-03-04 13:08:00,49.0,17.3,30.03,West,269,6.3,6.3,28,0.00,,SCT,0.00,VWS V14.01,2013-03-04 18:08:00,
2013-03-04 13:13:00,49.7,18.0,30.03,West,263,7.4,7.4,28,0.00,,SCT,0.00,VWS V14.01,2013-03-04 18:13:00,
2013-03-04 13:18:00,50.4,18.6,30.03,West,272,7.4,9.2,28,0.00,,SCT,0.00,VWS V14.01,2013-03-04 18:18:00,
2013-03-04 13:23:00,50.4,18.6,30.03,WNW,302,2.7,4.5,28,0.00,,SCT,0.00,VWS V14.01,2013-03-04 18:23:00,
2013-03-04 13:28:00,50.4,18.6,30.03,West,262,3.1,4.9,28,0.00,,SCT,0.00,VWS V14.01,2013-03-04 18:28:00,
2013-03-04 13:29:00,50.6,18.7,30.03,WNW,284,5.4,5.8,28,0.00,,SCT,0.00,VWS V14.01,2013-03-04 18:29:00,
2013-03-04 13:34:00,51.3,19.4,30.03,WNW,298,0.0,0.0,28,0.00,,SCT,0.00,VWS V14.01,2013-03-04 18:34:00,
2013-03-04 13:39:00,51.7,19.7,30.03,West,267,4.5,4.5,28,0.00,,SCT,0.00,VWS V14.01,2013-03-04 18:39:00,
2013-03-04 13:44:00,52.2,19.3,30.03,WNW,292,4.0,4.0,27,0.00,,SCT,0.00,VWS V14.01,2013-03-04 18:44:00,
2013-03-04 13:49:00,52.2,19.3,30.03,West,259,0.0,0.0,27,0.00,,SCT,0.00,VWS V14.01,2013-03-04 18:49:00,
2013-03-04 13:54:00,51.9,19.0,30.03,SW,236,3.1,3.6,27,0.00,,SCT,0.00,VWS V14.01,2013-03-04 18:54:00,
2013-03-04 13:59:00,52.1,19.1,30.00,West,267,3.6,3.6,27,0.00,,SCT,0.00,VWS V14.01,2013-03-04 18:59:00,
2013-03-04 14:04:00,52.8,19.8,30.00,West,265,3.6,6.3,27,0.00,,SCT,0.00,VWS V14.01,2013-03-04 19:04:00,
2013-03-04 14:09:00,53.1,20.0,30.00,WSW,258,6.3,6.3,27,0.00,,SCT,0.00,VWS V14.01,2013-03-04 19:09:00,
2013-03-04 14:14:00,53.0,19.9,30.00,WNW,287,4.0,6.7,27,0.00,,SCT,0.00,VWS V14.01,2013-03-04 19:14:00,
2013-03-04 14:19:00,53.0,19.9,30.00,West,280,6.7,6.9,27,0.00,,SCT,0.00,VWS V14.01,2013-03-04 19:19:00,
2013-03-04 14:24:00,53.0,19.9,30.00,WSW,243,8.3,9.6,27,0.00,,SCT,0.00,VWS V14.01,2013-03-04 19:24:00,
2013-03-04 14:29:00,52.8,19.8,30.00,WSW,256,5.8,6.3,27,0.00,,SCT,0.00,VWS V14.01,2013-03-04 19:29:00,
2013-03-04 14:34:00,53.0,19.9,30.00,WSW,251,3.1,6.7,27,0.00,,SCT,0.00,VWS V14.01,2013-03-04 19:34:00,
2013-03-04 14:39:00,53.1,20.0,30.00,WNW,288,0.0,4.5,27,0.00,,SCT,0.00,VWS V14.01,2013-03-04 19:39:00,
2013-03-04 14:44:00,53.3,20.2,30.00,West,269,3.6,7.4,27,0.00,,SCT,0.00,VWS V14.01,2013-03-04 19:44:00,
2013-03-04 14:49:00,53.3,20.2,30.00,WSW,247,4.5,5.4,27,0.00,,SCT,0.00,VWS V14.01,2013-03-04 19:49:00,
2013-03-04 14:54:00,53.1,20.0,30.00,West,274,4.5,6.3,27,0.00,,SCT,0.00,VWS V14.01,2013-03-04 19:54:00,
2013-03-04 14:59:00,52.2,19.3,30.00,SE,129,0.0,0.0,27,0.00,,SCT,0.00,VWS V14.01,2013-03-04 19:59:00,
2013-03-04 15:04:00,51.5,19.5,30.00,WSW,255,4.9,4.9,28,0.00,,SCT,0.00,VWS V14.01,2013-03-04 20:04:00,
2013-03-04 15:09:00,51.0,19.0,30.00,SSW,207,0.0,4.0,28,0.00,,SCT,0.00,VWS V14.01,2013-03-04 20:09:00,
2013-03-04 15:14:00,50.6,18.7,29.97,WSW,241,3.6,4.0,28,0.00,,SCT,0.00,VWS V14.01,2013-03-04 20:14:00,
2013-03-04 15:19:00,50.3,18.4,29.97,SW,223,4.5,4.9,28,0.00,,SCT,0.00,VWS V14.01,2013-03-04 20:19:00,
2013-03-04 15:24:00,50.1,18.3,29.97,SW,232,4.5,4.5,28,0.00,,SCT,0.00,VWS V14.01,2013-03-04 20:24:00,
2013-03-04 15:29:00,49.4,17.6,30.00,WNW,283,0.0,2.7,28,0.00,,SCT,0.00,VWS V14.01,2013-03-04 20:29:00,
2013-03-04 15:34:00,49.4,17.6,30.00,WSW,254,3.6,4.9,28,0.00,,SCT,0.00,VWS V14.01,2013-03-04 20:34:00,
2013-03-04 15:39:00,49.0,17.3,30.00,West,278,4.0,4.0,28,0.00,,SCT,0.00,VWS V14.01,2013-03-04 20:39:00,
2013-03-04 15:44:00,48.8,17.2,30.00,West,259,4.5,4.5,28,0.00,,SCT,0.00,VWS V14.01,2013-03-04 20:44:00,
2013-03-04 15:49:00,48.8,17.2,30.00,West,267,4.0,4.9,28,0.00,,SCT,0.00,VWS V14.01,2013-03-04 20:49:00,
2013-03-04 15:54:00,48.8,17.2,30.00,WSW,251,6.3,8.3,28,0.00,,SCT,0.00,VWS V14.01,2013-03-04 20:54:00,
2013-03-04 15:59:00,49.0,17.3,30.00,WSW,248,3.6,5.8,28,0.00,,SCT,0.00,VWS V14.01,2013-03-04 20:59:00,
2013-03-04 16:04:00,49.0,17.3,30.00,West,267,2.7,3.1,28,0.00,,SCT,0.00,VWS V14.01,2013-03-04 21:04:00,
2013-03-04 16:09:00,49.2,17.5,30.00,WSW,249,4.0,4.9,28,0.00,,SCT,0.00,VWS V14.01,2013-03-04 21:09:00,
2013-03-04 16:14:00,49.4,17.6,29.97,West,273,4.5,4.5,28,0.00,,SCT,0.00,VWS V14.01,2013-03-04 21:14:00,
2013-03-04 16:19:00,49.4,17.6,29.97,WSW,247,2.7,3.6,28,0.00,,SCT,0.00,VWS V14.01,2013-03-04 21:19:00,
2013-03-04 16:24:00,49.2,17.5,29.97,WSW,253,5.4,5.4,28,0.00,,SCT,0.00,VWS V14.01,2013-03-04 21:24:00,
2013-03-04 16:29:00,48.8,17.2,29.97,ESE,112,0.0,3.6,28,0.00,,SCT,0.00,VWS V14.01,2013-03-04 21:29:00,
2013-03-04 16:34:00,48.6,17.0,29.97,WNW,282,0.0,0.0,28,0.00,,SCT,0.00,VWS V14.01,2013-03-04 21:34:00,
2013-03-04 16:39:00,48.3,16.7,29.97,West,259,3.6,4.0,28,0.00,,SCT,0.00,VWS V14.01,2013-03-04 21:39:00,
2013-03-04 16:44:00,47.7,16.2,29.97,WSW,248,3.1,4.5,28,0.00,,SCT,0.00,VWS V14.01,2013-03-04 21:44:00,
2013-03-04 16:49:00,47.7,16.2,29.97,West,281,3.1,5.8,28,0.00,,SCT,0.00,VWS V14.01,2013-03-04 21:49:00,
2013-03-04 16:54:00,47.7,16.2,29.97,West,272,5.4,5.4,28,0.00,,SCT,0.00,VWS V14.01,2013-03-04 21:54:00,
2013-03-04 16:59:00,47.9,16.4,30.00,WNW,282,0.0,3.6,28,0.00,,SCT,0.00,VWS V14.01,2013-03-04 21:59:00,
2013-03-04 17:04:00,47.7,16.2,30.00,West,264,3.1,3.6,28,0.00,,SCT,0.00,VWS V14.01,2013-03-04 22:04:00,
2013-03-04 17:09:00,47.7,16.2,30.00,West,269,3.1,4.0,28,0.00,,SCT,0.00,VWS V14.01,2013-03-04 22:09:00,
2013-03-04 17:14:00,47.6,16.1,30.00,WSW,245,4.5,4.9,28,0.00,,SCT,0.00,VWS V14.01,2013-03-04 22:14:00,
2013-03-04 17:19:00,47.4,15.9,30.00,WSW,258,0.0,4.0,28,0.00,,SCT,0.00,VWS V14.01,2013-03-04 22:19:00,
2013-03-04 17:24:00,46.8,15.5,30.00,West,262,0.0,0.0,28,0.00,,SCT,0.00,VWS V14.01,2013-03-04 22:24:00,
2013-03-04 17:29:00,46.3,15.0,30.00,West,259,0.0,0.0,28,0.00,,SCT,0.00,VWS V14.01,2013-03-04 22:29:00,
2013-03-04 17:34:00,45.9,15.5,30.00,West,270,3.6,5.4,29,0.00,,SCT,0.00,VWS V14.01,2013-03-04 22:34:00,
2013-03-04 17:39:00,45.8,15.3,30.00,West,281,3.6,4.9,29,0.00,,SCT,0.00,VWS V14.01,2013-03-04 22:39:00,
2013-03-04 17:44:00,45.4,15.0,30.00,WSW,250,3.1,6.7,29,0.00,,SCT,0.00,VWS V14.01,2013-03-04 22:44:00,
2013-03-04 17:49:00,45.0,14.7,30.00,West,262,3.6,5.4,29,0.00,,SCT,0.00,VWS V14.01,2013-03-04 22:49:00,
2013-03-04 17:54:00,44.3,14.1,30.00,WSW,258,2.7,3.1,29,0.00,,SCT,0.00,VWS V14.01,2013-03-04 22:54:00,
2013-03-04 17:59:00,43.6,13.5,30.00,WSW,258,0.0,0.0,29,0.00,,SCT,0.00,VWS V14.01,2013-03-04 22:59:00,
2013-03-04 18:04:00,42.7,13.4,30.00,WSW,258,0.0,0.0,30,0.00,,SCT,0.00,VWS V14.01,2013-03-04 23:04:00,
2013-03-04 18:09:00,41.8,12.7,30.00,WSW,258,0.0,0.0,30,0.00,,SCT,0.00,VWS V14.01,2013-03-04 23:09:00,
2013-03-04 18:14:00,41.3,12.2,30.00,WSW,258,0.0,0.0,30,0.00,,SCT,0.00,VWS V14.01,2013-03-04 23:14:00,
2013-03-04 18:19:00,40.7,11.7,30.00,WSW,258,0.0,0.0,30,0.00,,SCT,0.00,VWS V14.01,2013-03-04 23:19:00,
2013-03-04 18:24:00,40.0,11.1,30.00,WSW,258,0.0,0.0,30,0.00,,SCT,0.00,VWS V14.01,2013-03-04 23:24:00,
2013-03-04 18:29:00,39.5,10.6,30.00,WSW,258,0.0,0.0,30,0.00,,SCT,0.00,VWS V14.01,2013-03-04 23:29:00,
2013-03-04 18:34:00,38.9,10.1,30.00,WSW,258,0.0,0.0,30,0.00,,SCT,0.00,VWS V14.01,2013-03-04 23:34:00,
2013-03-04 18:39:00,38.6,9.8,30.00,WSW,258,0.0,0.0,30,0.00,,SCT,0.00,VWS V14.01,2013-03-04 23:39:00,
2013-03-04 18:44:00,38.0,9.4,30.00,WSW,258,0.0,0.0,30,0.00,,SCT,0.00,VWS V14.01,2013-03-04 23:44:00,
2013-03-04 18:49:00,37.5,8.9,30.00,WSW,258,0.0,0.0,30,0.00,,SCT,0.00,VWS V14.01,2013-03-04 23:49:00,
2013-03-04 18:54:00,37.1,9.3,30.00,WSW,258,0.0,0.0,31,0.00,,SCT,0.00,VWS V14.01,2013-03-04 23:54:00,
2013-03-04 18:59:00,36.8,9.0,30.00,WSW,258,0.0,0.0,31,0.00,,SCT,0.00,VWS V14.01,2013-03-04 23:59:00,
2013-03-04 19:04:00,36.6,8.8,30.00,WSW,258,0.0,0.0,31,0.00,,SCT,0.00,VWS V14.01,2013-03-05 00:04:00,
2013-03-04 19:09:00,36.2,8.5,30.00,WSW,258,0.0,0.0,31,0.00,,SCT,0.00,VWS V14.01,2013-03-05 00:09:00,
2013-03-04 19:14:00,36.0,8.4,30.03,WSW,258,0.0,0.0,31,0.00,,SCT,0.00,VWS V14.01,2013-03-05 00:14:00,
2013-03-04 19:19:00,35.9,8.2,30.03,WSW,258,0.0,0.0,31,0.00,,SCT,0.00,VWS V14.01,2013-03-05 00:19:00,
2013-03-04 19:24:00,35.5,7.9,30.03,WSW,258,0.0,0.0,31,0.00,,SCT,0.00,VWS V14.01,2013-03-05 00:24:00,
2013-03-04 19:29:00,35.1,7.6,30.03,WSW,258,0.0,0.0,31,0.00,,SCT,0.00,VWS V14.01,2013-03-05 00:29:00,
2013-03-04 19:34:00,35.0,7.4,30.03,WSW,258,0.0,0.0,31,0.00,,SCT,0.00,VWS V14.01,2013-03-05 00:34:00,
2013-03-04 19:39:00,34.6,7.1,30.03,WSW,258,0.0,0.0,31,0.00,,SCT,0.00,VWS V14.01,2013-03-05 00:39:00,
2013-03-04 19:44:00,34.6,7.1,30.03,WSW,257,0.0,0.0,31,0.00,,SCT,0.00,VWS V14.01,2013-03-05 00:44:00,
2013-03-04 19:49:00,34.4,6.9,30.03,WSW,258,0.0,0.0,31,0.00,,SCT,0.00,VWS V14.01,2013-03-05 00:49:00,
2013-03-04 19:54:00,35.0,7.4,30.03,NE,37,4.9,4.9,31,0.00,,SCT,0.00,VWS V14.01,2013-03-05 00:54:00,
2013-03-04 19:59:00,35.3,7.7,30.03,NE,37,0.0,0.0,31,0.00,,SCT,0.00,VWS V14.01,2013-03-05 00:59:00,
2013-03-04 20:04:00,35.1,7.6,30.03,NE,37,0.0,0.0,31,0.00,,SCT,0.00,VWS V14.01,2013-03-05 01:04:00,
2013-03-04 20:09:00,34.6,7.1,30.03,NE,37,0.0,0.0,31,0.00,,SCT,0.00,VWS V14.01,2013-03-05 01:09:00,
2013-03-04 20:14:00,34.4,6.9,30.03,NE,37,0.0,0.0,31,0.00,,SCT,0.00,VWS V14.01,2013-03-05 01:14:00,
2013-03-04 20:19:00,34.2,6.8,30.03,NE,37,0.0,0.0,31,0.00,,SCT,0.00,VWS V14.01,2013-03-05 01:19:00,
2013-03-04 20:24:00,34.1,6.6,30.03,NE,37,0.0,0.0,31,0.00,,SCT,0.00,VWS V14.01,2013-03-05 01:24:00,
2013-03-04 20:29:00,33.7,6.3,30.03,NE,37,0.0,0.0,31,0.00,,SCT,0.00,VWS V14.01,2013-03-05 01:29:00,
2013-03-04 20:34:00,33.5,6.8,30.03,NE,37,0.0,0.0,32,0.00,,SCT,0.00,VWS V14.01,2013-03-05 01:34:00,
2013-03-04 20:39:00,33.7,7.0,30.03,NE,37,0.0,0.0,32,0.00,,SCT,0.00,VWS V14.01,2013-03-05 01:39:00,
2013-03-04 20:44:00,33.5,6.8,30.03,NE,37,0.0,0.0,32,0.00,,SCT,0.00,VWS V14.01,2013-03-05 01:44:00,
2013-03-04 20:49:00,33.5,6.8,30.03,NE,37,0.0,0.0,32,0.00,,SCT,0.00,VWS V14.01,2013-03-05 01:49:00,
2013-03-04 20:54:00,33.5,6.8,30.03,NE,37,0.0,0.0,32,0.00,,SCT,0.00,VWS V14.01,2013-03-05 01:54:00,
2013-03-04 20:59:00,33.3,6.7,30.03,NE,37,0.0,0.0,32,0.00,,SCT,0.00,VWS V14.01,2013-03-05 01:59:00,
2013-03-04 21:04:00,33.2,6.5,30.03,NE,37,0.0,0.0,32,0.00,,SCT,0.00,VWS V14.01,2013-03-05 02:04:00,
2013-03-04 21:09:00,33.2,6.5,30.03,NE,37,0.0,0.0,32,0.00,,SCT,0.00,VWS V14.01,2013-03-05 02:09:00,
2013-03-04 21:14:00,33.3,6.7,30.03,NE,37,0.0,0.0,32,0.00,,SCT,0.00,VWS V14.01,2013-03-05 02:14:00,
2013-03-04 21:19:00,33.5,6.8,30.03,NE,37,0.0,0.0,32,0.00,,SCT,0.00,VWS V14.01,2013-03-05 02:19:00,
2013-03-04 21:24:00,33.5,6.8,30.03,NE,37,0.0,0.0,32,0.00,,SCT,0.00,VWS V14.01,2013-03-05 02:24:00,
2013-03-04 21:29:00,33.2,7.8,30.03,NE,37,0.0,0.0,34,0.00,,SCT,0.00,VWS V14.01,2013-03-05 02:29:00,
2013-03-04 21:34:00,33.0,7.7,30.03,NE,37,0.0,0.0,34,0.00,,SCT,0.00,VWS V14.01,2013-03-05 02:34:00,
2013-03-04 21:39:00,32.6,7.4,30.03,NE,37,0.0,0.0,34,0.00,,SCT,0.00,VWS V14.01,2013-03-05 02:39:00,
2013-03-04 21:44:00,32.3,7.1,30.03,NE,37,0.0,0.0,34,0.00,,SCT,0.00,VWS V14.01,2013-03-05 02:44:00,
2013-03-04 21:49:00,32.1,8.8,30.03,NE,37,0.0,0.0,37,0.00,,SCT,0.00,VWS V14.01,2013-03-05 02:49:00,
2013-03-04 21:54:00,31.7,8.4,30.03,NE,37,0.0,0.0,37,0.00,,SCT,0.00,VWS V14.01,2013-03-05 02:54:00,
2013-03-04 21:59:00,31.7,8.4,30.03,NE,37,0.0,0.0,37,0.00,,SCT,0.00,VWS V14.01,2013-03-05 02:59:00,
2013-03-04 22:04:00,31.9,8.6,30.03,NE,37,0.0,0.0,37,0.00,,SCT,0.00,VWS V14.01,2013-03-05 03:04:00,
2013-03-04 22:09:00,31.7,8.4,30.03,NE,37,0.0,0.0,37,0.00,,SCT,0.00,VWS V14.01,2013-03-05 03:09:00,
2013-03-04 22:14:00,31.7,8.4,30.03,NE,37,0.0,0.0,37,0.00,,SCT,0.00,VWS V14.01,2013-03-05 03:14:00,
2013-03-04 22:19:00,31.7,8.4,30.03,NE,37,0.0,0.0,37,0.00,,SCT,0.00,VWS V14.01,2013-03-05 03:19:00,
2013-03-04 22:24:00,31.9,8.6,30.03,NE,37,0.0,0.0,37,0.00,,SCT,0.00,VWS V14.01,2013-03-05 03:24:00,
2013-03-04 22:29:00,32.1,8.8,30.03,NE,37,0.0,0.0,37,0.00,,SCT,0.00,VWS V14.01,2013-03-05 03:29:00,
2013-03-04 22:34:00,32.3,8.9,30.03,NE,37,0.0,0.0,37,0.00,,SCT,0.00,VWS V14.01,2013-03-05 03:34:00,
2013-03-04 22:39:00,32.4,9.1,30.03,NE,37,0.0,0.0,37,0.00,,SCT,0.00,VWS V14.01,2013-03-05 03:39:00,
2013-03-04 22:44:00,32.3,8.9,30.03,NE,37,0.0,0.0,37,0.00,,SCT,0.00,VWS V14.01,2013-03-05 03:44:00,
2013-03-04 22:49:00,32.4,9.1,30.03,NE,37,0.0,0.0,37,0.00,,SCT,0.00,VWS V14.01,2013-03-05 03:49:00,
2013-03-04 22:54:00,32.8,9.4,30.03,NE,37,0.0,0.0,37,0.00,,SCT,0.00,VWS V14.01,2013-03-05 03:54:00,
2013-03-04 22:59:00,33.0,9.6,30.03,NE,37,0.0,0.0,37,0.00,,SCT,0.00,VWS V14.01,2013-03-05 03:59:00,
2013-03-04 23:04:00,33.0,9.6,30.03,NE,37,0.0,0.0,37,0.00,,SCT,0.00,VWS V14.01,2013-03-05 04:04:00,
2013-03-04 23:09:00,32.8,9.4,30.03,NE,37,0.0,0.0,37,0.00,,SCT,0.00,VWS V14.01,2013-03-05 04:09:00,
2013-03-04 23:14:00,33.0,9.6,30.03,NE,37,0.0,0.0,37,0.00,,SCT,0.00,VWS V14.01,2013-03-05 04:14:00,
2013-03-04 23:19:00,33.2,9.7,30.03,NE,37,0.0,0.0,37,0.00,,SCT,0.00,VWS V14.01,2013-03-05 04:19:00,
2013-03-04 23:24:00,33.2,9.7,30.03,NE,37,0.0,0.0,37,0.00,,SCT,0.00,VWS V14.01,2013-03-05 04:24:00,
2013-03-04 23:29:00,33.3,9.9,30.03,NE,37,0.0,0.0,37,0.00,,SCT,0.00,VWS V14.01,2013-03-05 04:29:00,
2013-03-04 23:34:00,33.9,10.4,30.03,NE,37,0.0,0.0,37,0.00,,SCT,0.00,VWS V14.01,2013-03-05 04:34:00,
2013-03-04 23:39:00,34.4,10.9,30.03,NE,37,0.0,0.0,37,0.00,,SCT,0.00,VWS V14.01,2013-03-05 04:39:00,
2013-03-04 23:44:00,34.6,11.0,30.03,NE,37,0.0,0.0,37,0.00,,SCT,0.00,VWS V14.01,2013-03-05 04:44:00,
2013-03-04 23:49:00,35.3,11.7,30.03,NE,37,0.0,0.0,37,0.00,,SCT,0.00,VWS V14.01,2013-03-05 04:49:00,
2013-03-04 23:53:00,35.9,11.5,30.03,NE,37,0.0,0.0,36,0.00,,SCT,0.00,VWS V14.01,2013-03-05 04:53:00,
2013-03-04 23:58:00,36.0,11.7,30.03,NE,37,0.0,0.0,36,0.00,,SCT,0.00,VWS V14.01,2013-03-05 04:58:00,